Time;durP1;ratioP1;P1;durP2;ratioP2;P2;SDS_P1;SDS_P2;PMS_P1;PMS_P2;Temp;Humidity;BMP_temperature;BMP_pressure;BME280_temperature;BME280_humidity;BME280_pressure;Samples;Min_cycle;Max_cycle;Signal;HPM_P1;HPM_P2
2023/12/03 00:00:02;;;;;;;56.30;22.40;;;-1.60;99.90;;;;;;5112280;27;20566;-49
2023/12/03 00:02:28;;;;;;;52.00;21.97;;;-1.50;99.90;;;;;;5111005;27;20443;-49
2023/12/03 00:04:54;;;;;;;52.03;21.90;;;-1.50;99.90;;;;;;5104716;27;20438;-49
2023/12/03 00:07:21;;;;;;;52.23;23.23;;;-1.50;99.90;;;;;;5105798;27;20793;-50
2023/12/03 00:09:47;;;;;;;53.43;22.37;;;-1.50;99.90;;;;;;5104897;27;20450;-49
2023/12/03 00:12:13;;;;;;;53.87;22.97;;;-1.40;99.90;;;;;;5109911;27;20436;-50
2023/12/03 00:14:38;;;;;;;54.00;23.97;;;-1.40;99.90;;;;;;5106287;27;20653;-50
2023/12/03 00:17:04;;;;;;;55.20;24.60;;;-1.30;99.90;;;;;;5105403;27;20268;-50
2023/12/03 00:19:30;;;;;;;52.57;22.57;;;-1.30;99.90;;;;;;5104777;27;20216;-50
2023/12/03 00:21:55;;;;;;;58.33;23.17;;;-1.30;99.90;;;;;;5104923;27;20448;-49
2023/12/03 00:24:21;;;;;;;49.23;20.80;;;-1.30;99.90;;;;;;5096210;27;20227;-50
2023/12/03 00:26:47;;;;;;;56.90;23.20;;;-1.20;99.90;;;;;;5105417;27;20199;-51
2023/12/03 00:29:13;;;;;;;53.03;23.20;;;-1.20;99.90;;;;;;5100333;27;20209;-50
2023/12/03 00:31:39;;;;;;;55.70;23.10;;;-1.20;99.90;;;;;;5107786;27;20522;-50
2023/12/03 00:34:05;;;;;;;48.43;22.00;;;-1.10;99.90;;;;;;5101880;27;20277;-50
2023/12/03 00:36:34;;;;;;;47.20;21.30;;;-1.10;99.90;;;;;;5114294;27;20429;-50
2023/12/03 00:39:00;;;;;;;53.43;23.33;;;-1.10;99.90;;;;;;5110972;27;20475;-50
2023/12/03 00:41:25;;;;;;;54.43;23.73;;;-1.10;99.90;;;;;;5107215;27;20452;-50
2023/12/03 00:43:51;;;;;;;48.43;22.17;;;-1.10;99.90;;;;;;5106989;27;20538;-50
2023/12/03 00:46:21;;;;;;;56.47;23.30;;;-1.00;99.90;;;;;;5104559;27;20335;-50
2023/12/03 00:48:47;;;;;;;53.47;22.53;;;-1.00;99.90;;;;;;5111020;27;20196;-50
2023/12/03 00:51:13;;;;;;;56.90;23.50;;;-1.00;99.90;;;;;;5109434;28;20435;-50
2023/12/03 00:53:38;;;;;;;50.17;22.33;;;-1.00;99.90;;;;;;5104402;28;20279;-51
2023/12/03 00:56:04;;;;;;;57.87;23.70;;;-1.00;99.90;;;;;;5106262;28;20530;-50
2023/12/03 00:58:30;;;;;;;49.77;23.07;;;-0.90;99.90;;;;;;5103181;28;20187;-50
2023/12/03 01:00:56;;;;;;;56.73;23.57;;;-0.90;99.90;;;;;;5102799;28;21001;-50
2023/12/03 01:03:22;;;;;;;49.93;21.80;;;-0.90;99.90;;;;;;5102381;28;20449;-50
2023/12/03 01:05:47;;;;;;;54.83;24.73;;;-0.90;99.90;;;;;;5105188;28;20740;-50
2023/12/03 01:08:13;;;;;;;57.43;24.73;;;-0.90;99.90;;;;;;5111185;27;20185;-51
2023/12/03 01:10:39;;;;;;;55.37;25.20;;;-0.90;99.90;;;;;;5110330;27;20243;-50
2023/12/03 01:13:04;;;;;;;58.57;24.87;;;-0.90;99.90;;;;;;5109379;27;20239;-50
2023/12/03 01:15:30;;;;;;;60.37;25.47;;;-0.90;99.90;;;;;;5108542;27;20196;-50
2023/12/03 01:17:55;;;;;;;57.20;24.90;;;-0.90;99.90;;;;;;5112973;27;20183;-50
2023/12/03 01:20:21;;;;;;;57.30;25.00;;;-0.90;99.90;;;;;;5110642;27;20220;-50
2023/12/03 01:22:46;;;;;;;60.07;25.30;;;-0.80;99.90;;;;;;5107814;27;20198;-50
2023/12/03 01:25:12;;;;;;;55.23;24.43;;;-0.80;99.90;;;;;;5107195;27;20180;-50
2023/12/03 01:27:37;;;;;;;64.53;26.53;;;-0.90;99.90;;;;;;5107362;27;20192;-50
2023/12/03 01:30:04;;;;;;;60.20;24.70;;;-0.90;98.30;;;;;;5109012;27;20215;-50
2023/12/03 01:32:29;;;;;;;53.57;23.17;;;-0.80;96.40;;;;;;5091515;27;20199;-50
2023/12/03 01:34:55;;;;;;;60.07;25.47;;;-0.90;91.70;;;;;;5108641;27;20449;-51
2023/12/03 01:37:21;;;;;;;51.00;22.30;;;-0.90;88.30;;;;;;5112171;27;20191;-50
2023/12/03 01:39:46;;;;;;;55.13;25.03;;;-0.90;89.40;;;;;;5109893;27;20248;-50
2023/12/03 01:42:12;;;;;;;63.20;25.33;;;-0.90;91.20;;;;;;5106888;27;20648;-51
2023/12/03 01:44:37;;;;;;;56.60;24.53;;;-0.80;89.50;;;;;;5108633;27;20193;-50
2023/12/03 01:47:06;;;;;;;58.60;26.00;;;-0.90;81.20;;;;;;5109661;27;20176;-50
2023/12/03 01:49:32;;;;;;;56.17;25.17;;;-0.90;84.80;;;;;;5107215;27;20640;-50
2023/12/03 01:51:58;;;;;;;62.30;26.07;;;-0.80;80.80;;;;;;5108288;27;20430;-50
2023/12/03 01:54:27;;;;;;;67.77;26.13;;;-0.90;70.80;;;;;;5117847;27;20466;-50
2023/12/03 01:56:54;;;;;;;58.00;25.70;;;-0.90;61.70;;;;;;5109984;27;20437;-50
2023/12/03 01:59:21;;;;;;;55.23;24.10;;;-0.90;62.70;;;;;;5107351;27;20473;-50
2023/12/03 02:01:47;;;;;;;54.00;23.83;;;-0.90;71.10;;;;;;5110366;27;20449;-50
2023/12/03 02:04:12;;;;;;;56.00;24.40;;;-0.80;71.40;;;;;;5114497;27;20465;-50
2023/12/03 02:06:38;;;;;;;51.03;22.13;;;-0.80;68.60;;;;;;5108979;27;20314;-50
2023/12/03 02:09:04;;;;;;;53.60;23.63;;;-0.90;58.60;;;;;;5108769;27;20195;-50
2023/12/03 02:11:30;;;;;;;49.10;23.10;;;-0.90;34.90;;;;;;5102080;27;20199;-50
2023/12/03 02:13:56;;;;;;;57.93;23.33;;;-0.90;21.10;;;;;;5107447;27;20273;-50
2023/12/03 02:16:22;;;;;;;49.50;21.87;;;-1.00;9.10;;;;;;5111802;27;20438;-50
2023/12/03 02:18:47;;;;;;;54.77;22.53;;;-1.00;4.00;;;;;;5104686;27;20449;-50
2023/12/03 02:21:13;;;;;;;51.10;22.80;;;-1.00;1.00;;;;;;5105667;27;20192;-50
2023/12/03 02:23:38;;;;;;;54.87;23.47;;;-1.10;1.00;;;;;;5111242;27;20204;-50
2023/12/03 02:26:04;;;;;;;54.33;23.03;;;-1.10;1.50;;;;;;5105121;27;20190;-50
2023/12/03 02:28:30;;;;;;;51.33;23.50;;;-1.10;2.70;;;;;;5109455;27;20213;-50
2023/12/03 02:30:56;;;;;;;52.13;23.30;;;-1.10;9.20;;;;;;5104495;27;20232;-50
2023/12/03 02:33:22;;;;;;;55.83;24.43;;;-1.10;23.30;;;;;;5111646;27;20264;-50
2023/12/03 02:35:48;;;;;;;58.80;24.37;;;-1.00;34.50;;;;;;5106034;27;20522;-50
2023/12/03 02:38:14;;;;;;;54.93;24.73;;;-0.90;50.70;;;;;;5102264;27;20192;-50
2023/12/03 02:40:39;;;;;;;57.43;23.57;;;-0.90;42.90;;;;;;5103307;27;20299;-50
2023/12/03 02:43:05;;;;;;;50.60;23.53;;;-0.80;38.30;;;;;;5112935;27;20185;-48
2023/12/03 02:45:30;;;;;;;54.00;23.90;;;-0.80;8.80;;;;;;5103984;27;20204;-48
2023/12/03 02:47:56;;;;;;;56.47;22.67;;;-0.80;10.00;;;;;;5106052;27;20228;-48
2023/12/03 02:50:21;;;;;;;52.83;23.20;;;-0.80;1.00;;;;;;5106924;27;20189;-48
2023/12/03 02:52:48;;;;;;;62.57;25.27;;;-0.80;1.00;;;;;;5106198;27;20676;-49
2023/12/03 02:55:13;;;;;;;56.87;23.70;;;-0.80;1.00;;;;;;5109173;27;20190;-49
2023/12/03 02:57:39;;;;;;;52.00;23.17;;;-0.80;1.00;;;;;;5111691;27;20951;-48
2023/12/03 03:00:06;;;;;;;54.23;23.63;;;-0.80;1.00;;;;;;5108197;27;20216;-49
2023/12/03 03:02:36;;;;;;;55.23;24.53;;;-0.80;1.00;;;;;;5114026;27;20567;-48
2023/12/03 03:05:01;;;;;;;52.70;23.53;;;-0.80;1.00;;;;;;5106183;27;21014;-49
2023/12/03 03:07:27;;;;;;;61.20;24.53;;;-0.80;1.00;;;;;;5113257;27;20423;-49
2023/12/03 03:09:53;;;;;;;53.40;22.00;;;-0.80;1.00;;;;;;5107529;27;20214;-49
2023/12/03 03:12:19;;;;;;;45.90;21.20;;;-0.90;1.00;;;;;;5107573;27;20438;-49
2023/12/03 03:14:44;;;;;;;50.97;22.07;;;-0.90;1.00;;;;;;5107121;27;20233;-49
2023/12/03 03:17:10;;;;;;;48.93;20.50;;;-0.90;1.00;;;;;;5110141;27;20183;-49
2023/12/03 03:19:35;;;;;;;50.63;23.00;;;-0.90;1.00;;;;;;5104252;27;20256;-49
2023/12/03 03:22:01;;;;;;;48.07;20.87;;;-1.00;1.00;;;;;;5103436;27;20721;-48
2023/12/03 03:24:26;;;;;;;47.93;21.53;;;-1.00;1.00;;;;;;5112127;27;20184;-49
2023/12/03 03:26:52;;;;;;;53.47;21.93;;;-1.10;1.00;;;;;;5105960;27;20191;-49
2023/12/03 03:29:18;;;;;;;53.17;22.90;;;-1.10;1.00;;;;;;5108983;27;20199;-48
2023/12/03 03:31:44;;;;;;;54.73;22.70;;;-1.10;1.00;;;;;;5104384;27;20662;-49
2023/12/03 03:34:10;;;;;;;54.73;23.50;;;-1.10;1.00;;;;;;5110199;27;20188;-48
2023/12/03 03:36:35;;;;;;;49.20;21.13;;;-1.10;1.00;;;;;;5104140;27;21010;-49
2023/12/03 03:39:01;;;;;;;50.83;22.57;;;-1.00;1.00;;;;;;5110700;27;20188;-49
2023/12/03 03:41:26;;;;;;;53.07;22.33;;;-1.00;1.00;;;;;;5101804;27;20180;-49
2023/12/03 03:43:52;;;;;;;53.80;22.70;;;-1.00;1.00;;;;;;5102143;27;20184;-49
2023/12/03 03:46:18;;;;;;;47.80;20.77;;;-1.10;1.00;;;;;;5104442;27;20174;-49
2023/12/03 03:48:44;;;;;;;48.23;20.83;;;-1.10;1.00;;;;;;5109573;27;20922;-49
2023/12/03 03:51:09;;;;;;;53.43;23.57;;;-1.10;1.00;;;;;;5087312;27;20214;-48
2023/12/03 03:53:35;;;;;;;46.60;21.30;;;-1.00;1.00;;;;;;5109954;27;20201;-49
2023/12/03 03:56:08;;;;;;;53.43;23.30;;;-1.00;1.00;;;;;;5107108;27;20186;-49
2023/12/03 03:58:36;;;;;;;54.33;24.33;;;-1.00;1.00;;;;;;5106818;27;20194;-49
2023/12/03 04:01:04;;;;;;;49.37;22.43;;;-1.00;1.00;;;;;;5099669;27;20490;-48
2023/12/03 04:03:30;;;;;;;55.17;23.50;;;-1.00;1.00;;;;;;5103921;27;20462;-49
2023/12/03 04:05:56;;;;;;;58.57;22.67;;;-1.00;1.00;;;;;;5105220;27;20548;-48
2023/12/03 04:08:21;;;;;;;48.00;21.70;;;-1.00;1.00;;;;;;5111585;27;20580;-49
2023/12/03 04:10:47;;;;;;;51.80;23.30;;;-1.00;1.00;;;;;;5106673;27;20237;-49
2023/12/03 04:13:12;;;;;;;49.30;22.33;;;-1.00;1.00;;;;;;5108252;27;20188;-50
2023/12/03 04:15:38;;;;;;;51.50;22.20;;;-1.10;1.00;;;;;;5106070;27;20197;-49
2023/12/03 04:18:03;;;;;;;50.07;21.67;;;-1.10;1.00;;;;;;5104438;27;20188;-49
2023/12/03 04:20:29;;;;;;;48.90;21.73;;;-1.10;1.00;;;;;;5106998;27;20226;-49
2023/12/03 04:22:55;;;;;;;51.13;22.67;;;-1.20;1.00;;;;;;5102747;27;20191;-49
2023/12/03 04:25:22;;;;;;;47.43;21.77;;;-1.20;1.00;;;;;;5100378;27;20535;-49
2023/12/03 04:27:47;;;;;;;55.53;22.57;;;-1.20;1.00;;;;;;5107515;27;20181;-49
2023/12/03 04:30:13;;;;;;;45.97;19.10;;;-1.30;1.00;;;;;;5111534;27;20542;-49
2023/12/03 04:32:39;;;;;;;44.70;20.50;;;-1.30;1.00;;;;;;5104565;27;20625;-49
2023/12/03 04:35:05;;;;;;;55.70;21.87;;;-1.20;1.00;;;;;;5098291;27;20188;-49
2023/12/03 04:37:30;;;;;;;52.13;24.27;;;-1.30;1.00;;;;;;5110368;27;20442;-48
2023/12/03 04:39:56;;;;;;;50.07;21.97;;;-1.30;1.00;;;;;;5105242;28;20299;-49
2023/12/03 04:42:21;;;;;;;49.97;21.60;;;-1.30;1.00;;;;;;5098394;28;20224;-49
2023/12/03 04:44:47;;;;;;;50.87;22.27;;;-1.30;1.00;;;;;;5107220;27;20190;-49
2023/12/03 04:47:13;;;;;;;50.70;23.40;;;-1.20;1.00;;;;;;5108032;28;20190;-48
2023/12/03 04:49:39;;;;;;;50.53;21.87;;;-1.30;1.00;;;;;;5107409;27;20195;-48
2023/12/03 04:52:05;;;;;;;52.50;23.40;;;-1.30;1.00;;;;;;5105956;27;20804;-48
2023/12/03 04:54:31;;;;;;;54.50;23.77;;;-1.30;1.00;;;;;;5108433;28;20190;-49
2023/12/03 04:56:56;;;;;;;57.10;23.80;;;-1.30;1.00;;;;;;5103260;28;20206;-49
2023/12/03 04:59:22;;;;;;;53.43;21.37;;;-1.30;1.00;;;;;;5104336;28;20477;-48
2023/12/03 05:01:47;;;;;;;51.87;23.70;;;-1.30;1.00;;;;;;5103948;28;20278;-49
2023/12/03 05:04:13;;;;;;;54.07;22.27;;;-1.30;1.00;;;;;;5105813;28;20211;-49
2023/12/03 05:06:38;;;;;;;53.57;22.10;;;-1.30;1.00;;;;;;5104946;28;20320;-48
2023/12/03 05:09:05;;;;;;;57.40;21.17;;;-1.30;1.00;;;;;;5106692;28;20583;-48
2023/12/03 05:11:31;;;;;;;51.07;22.87;;;-1.30;1.00;;;;;;5101999;28;20192;-49
2023/12/03 05:13:56;;;;;;;52.20;22.50;;;-1.40;1.00;;;;;;5107533;28;20860;-49
2023/12/03 05:16:22;;;;;;;57.37;22.63;;;-1.40;1.00;;;;;;5105959;28;20190;-49
2023/12/03 05:18:48;;;;;;;59.67;23.13;;;-1.40;1.00;;;;;;5105543;28;20185;-49
2023/12/03 05:21:13;;;;;;;60.30;23.50;;;-1.40;1.00;;;;;;5104503;28;20690;-49
2023/12/03 05:23:39;;;;;;;52.43;21.60;;;-1.40;1.00;;;;;;5107232;28;20197;-48
2023/12/03 05:26:04;;;;;;;50.37;23.67;;;-1.40;1.00;;;;;;5103792;28;20182;-48
2023/12/03 05:28:30;;;;;;;61.87;24.23;;;-1.40;1.00;;;;;;5110395;28;20223;-48
2023/12/03 05:30:56;;;;;;;54.63;22.47;;;-1.40;1.00;;;;;;5100006;28;20638;-49
2023/12/03 05:33:21;;;;;;;50.33;21.40;;;-1.40;1.00;;;;;;5103195;28;21741;-49
2023/12/03 05:35:47;;;;;;;56.80;21.90;;;-1.50;1.00;;;;;;5103526;28;20193;-49
2023/12/03 05:38:13;;;;;;;61.10;21.53;;;-1.50;1.00;;;;;;5102966;28;20198;-49
2023/12/03 05:40:38;;;;;;;56.60;22.20;;;-1.50;1.00;;;;;;5104077;28;20251;-49
2023/12/03 05:43:04;;;;;;;50.10;20.63;;;-1.40;1.00;;;;;;5104335;28;20192;-48
2023/12/03 05:45:29;;;;;;;46.47;20.23;;;-1.50;1.00;;;;;;5108350;28;20188;-50
2023/12/03 05:47:55;;;;;;;58.77;22.97;;;-1.60;1.00;;;;;;5104123;28;20189;-50
2023/12/03 05:50:21;;;;;;;51.13;21.03;;;-1.60;1.00;;;;;;5105219;28;20529;-50
2023/12/03 05:52:46;;;;;;;62.87;24.47;;;-1.60;1.00;;;;;;5106281;27;20183;-50
2023/12/03 05:55:12;;;;;;;55.53;20.73;;;-1.60;1.00;;;;;;5109790;27;20192;-49
2023/12/03 05:57:38;;;;;;;50.63;21.50;;;-1.60;1.00;;;;;;5111566;27;21665;-50
2023/12/03 06:00:04;;;;;;;60.70;19.73;;;-1.70;1.00;;;;;;5108779;27;20221;-51
2023/12/03 06:02:30;;;;;;;51.07;21.00;;;-1.70;1.00;;;;;;5091890;27;20672;-50
2023/12/03 06:04:55;;;;;;;54.57;21.87;;;-1.70;1.00;;;;;;5106289;27;20517;-50
2023/12/03 06:07:21;;;;;;;76.73;21.97;;;-1.70;1.00;;;;;;5106095;27;20190;-48
2023/12/03 06:09:47;;;;;;;58.07;23.33;;;-1.70;1.00;;;;;;5110110;27;20546;-48
2023/12/03 06:12:12;;;;;;;61.90;22.57;;;-1.70;1.00;;;;;;5107751;27;20448;-48
2023/12/03 06:14:38;;;;;;;65.43;22.87;;;-1.70;1.00;;;;;;5105661;27;20729;-48
2023/12/03 06:17:04;;;;;;;69.27;23.60;;;-1.60;1.00;;;;;;5109339;27;20181;-48
2023/12/03 06:19:29;;;;;;;94.10;26.57;;;-1.60;1.00;;;;;;5109217;27;20222;-48
2023/12/03 06:21:55;;;;;;;57.40;21.80;;;-1.70;1.00;;;;;;5089754;28;20190;-48
2023/12/03 06:24:21;;;;;;;85.77;23.83;;;-1.70;1.00;;;;;;5110253;27;20192;-48
2023/12/03 06:26:47;;;;;;;68.67;20.77;;;-1.70;1.00;;;;;;5105803;27;20185;-49
2023/12/03 06:29:13;;;;;;;59.53;23.33;;;-1.70;1.00;;;;;;5111199;27;20198;-48
2023/12/03 06:31:38;;;;;;;74.60;23.67;;;-1.70;1.00;;;;;;5086170;28;20505;-48
2023/12/03 06:34:04;;;;;;;65.23;22.73;;;-1.70;1.00;;;;;;5107200;27;20195;-48
2023/12/03 06:36:30;;;;;;;59.47;23.27;;;-1.70;1.00;;;;;;5105480;27;20433;-48
2023/12/03 06:38:55;;;;;;;149.20;24.10;;;-1.80;1.00;;;;;;5111077;27;20205;-48
2023/12/03 06:41:21;;;;;;;78.67;23.27;;;-1.80;1.00;;;;;;5107184;27;20187;-48
2023/12/03 06:43:46;;;;;;;72.43;21.73;;;-1.80;1.00;;;;;;5106446;27;20268;-48
2023/12/03 06:46:12;;;;;;;73.87;23.37;;;-1.80;1.00;;;;;;5105917;27;20243;-48
2023/12/03 06:48:42;;;;;;;85.97;21.00;;;-1.80;1.00;;;;;;5106593;27;20638;-48
2023/12/03 06:51:08;;;;;;;69.00;22.63;;;-1.80;1.00;;;;;;5103316;27;20193;-48
2023/12/03 06:53:34;;;;;;;60.93;22.40;;;-1.80;1.00;;;;;;5099717;27;21000;-48
2023/12/03 06:56:00;;;;;;;134.53;25.63;;;-1.80;1.00;;;;;;5088456;27;20456;-48
2023/12/03 06:58:25;;;;;;;66.80;22.23;;;-1.80;1.00;;;;;;5108488;27;20180;-49
2023/12/03 07:00:51;;;;;;;53.57;23.40;;;-1.90;1.00;;;;;;5102851;27;20218;-48
2023/12/03 07:03:16;;;;;;;66.10;22.70;;;-1.80;1.00;;;;;;5101500;27;20184;-48
2023/12/03 07:05:42;;;;;;;77.60;24.00;;;-1.80;1.00;;;;;;5100500;27;20240;-48
2023/12/03 07:08:08;;;;;;;72.57;25.30;;;-1.80;1.00;;;;;;5104893;27;20189;-48
2023/12/03 07:10:33;;;;;;;65.23;25.60;;;-1.80;5.10;;;;;;5108656;27;20196;-48
2023/12/03 07:12:59;;;;;;;61.10;23.77;;;-1.70;17.70;;;;;;5109735;27;20179;-48
2023/12/03 07:15:25;;;;;;;58.00;22.03;;;-1.70;22.50;;;;;;5108596;27;20642;-48
2023/12/03 07:17:50;;;;;;;76.13;22.50;;;-1.70;30.30;;;;;;5106205;27;20203;-49
2023/12/03 07:20:18;;;;;;;78.00;24.83;;;-1.60;27.60;;;;;;5107756;27;20470;-48
2023/12/03 07:22:43;;;;;;;70.00;22.10;;;-1.60;13.50;;;;;;5087702;28;20191;-49
2023/12/03 07:25:09;;;;;;;86.40;25.33;;;-1.60;1.00;;;;;;5106886;27;20435;-49
2023/12/03 07:27:35;;;;;;;73.70;24.60;;;-1.50;1.00;;;;;;5107994;27;20208;-49
2023/12/03 07:30:00;;;;;;;65.10;23.90;;;-1.60;1.00;;;;;;5103450;27;20444;-48
2023/12/03 07:32:26;;;;;;;125.47;27.70;;;-1.60;1.00;;;;;;5107396;27;20185;-48
2023/12/03 07:34:52;;;;;;;82.87;26.67;;;-1.60;1.00;;;;;;5110125;27;20543;-48
2023/12/03 07:37:18;;;;;;;96.60;28.53;;;-1.60;1.00;;;;;;5101603;27;20219;-48
2023/12/03 07:39:44;;;;;;;87.00;27.70;;;-1.60;1.00;;;;;;5111488;27;20891;-48
2023/12/03 07:42:09;;;;;;;96.00;26.27;;;-1.60;1.00;;;;;;5100561;27;20276;-48
2023/12/03 07:44:35;;;;;;;47.40;21.20;;;-1.70;1.00;;;;;;5111665;27;20621;-48
2023/12/03 07:47:01;;;;;;;111.60;20.00;;;-1.70;1.00;;;;;;5105395;27;20657;-48
2023/12/03 07:49:26;;;;;;;62.77;17.80;;;-1.80;1.00;;;;;;5105889;27;20636;-48
2023/12/03 07:51:52;;;;;;;51.73;17.17;;;-1.90;1.00;;;;;;5101894;27;20204;-48
2023/12/03 07:54:17;;;;;;;50.43;16.20;;;-1.90;1.00;;;;;;5112255;27;20191;-48
2023/12/03 07:56:43;;;;;;;69.07;16.13;;;-1.90;1.00;;;;;;5109493;27;20184;-48
2023/12/03 07:59:09;;;;;;;61.73;17.80;;;-2.00;1.00;;;;;;5105947;27;20232;-48
2023/12/03 08:01:35;;;;;;;51.70;15.30;;;-2.10;1.00;;;;;;5107341;27;20801;-48
2023/12/03 08:04:03;;;;;;;51.43;15.10;;;-2.10;1.00;;;;;;5105319;27;20463;-48
2023/12/03 08:06:32;;;;;;;49.23;16.60;;;-2.20;1.00;;;;;;5102290;27;20499;-48
2023/12/03 08:09:00;;;;;;;49.23;16.50;;;-2.20;1.00;;;;;;5109488;27;20436;-47
2023/12/03 08:11:26;;;;;;;71.00;16.07;;;-2.40;99.90;;;;;;5103894;27;20783;-47
2023/12/03 08:13:55;;;;;;;39.33;15.67;;;-2.40;99.90;;;;;;5107649;27;20482;-47
2023/12/03 08:16:21;;;;;;;53.87;16.83;;;-2.50;99.90;;;;;;5107680;27;20812;-48
2023/12/03 08:18:47;;;;;;;48.23;17.10;;;-2.50;1.00;;;;;;5101537;27;20442;-48
2023/12/03 08:21:13;;;;;;;74.07;15.73;;;-2.60;99.90;;;;;;5102898;27;20694;-48
2023/12/03 08:23:40;;;;;;;39.00;13.90;;;-2.60;99.90;;;;;;5104717;27;20454;-48
2023/12/03 08:26:06;;;;;;;38.27;15.13;;;-2.70;99.90;;;;;;5105004;27;20279;-48
2023/12/03 08:28:31;;;;;;;37.30;15.43;;;-2.80;99.90;;;;;;5107574;27;20439;-48
2023/12/03 08:30:58;;;;;;;40.03;16.90;;;-2.70;99.90;;;;;;5106221;27;21051;-48
2023/12/03 08:33:23;;;;;;;43.67;17.47;;;-2.60;1.00;;;;;;5104884;27;20650;-48
2023/12/03 08:35:49;;;;;;;41.70;15.77;;;-2.50;1.00;;;;;;5103958;28;20527;-48
2023/12/03 08:38:14;;;;;;;46.20;15.80;;;-2.40;1.00;;;;;;5107966;27;20184;-49
2023/12/03 08:40:40;;;;;;;32.77;15.20;;;-2.40;1.00;;;;;;5108426;27;20235;-48
2023/12/03 08:43:05;;;;;;;39.10;15.17;;;-2.40;1.00;;;;;;5105017;27;20196;-48
2023/12/03 08:45:32;;;;;;;46.53;15.40;;;-2.40;99.90;;;;;;5105483;27;20200;-48
2023/12/03 08:48:00;;;;;;;66.07;17.27;;;-2.50;99.90;;;;;;5098312;28;20192;-48
2023/12/03 08:50:28;;;;;;;102.40;19.80;;;-2.50;99.90;;;;;;5106373;27;20998;-47
2023/12/03 08:52:54;;;;;;;76.43;17.27;;;-2.60;99.90;;;;;;5100982;28;20455;-48
2023/12/03 08:55:19;;;;;;;47.00;16.00;;;-2.50;99.90;;;;;;5105820;27;20494;-48
2023/12/03 08:57:45;;;;;;;108.33;18.67;;;-2.40;99.90;;;;;;5100902;28;20443;-48
2023/12/03 09:00:12;;;;;;;77.77;17.60;;;-2.40;99.90;;;;;;5103653;28;20220;-47
2023/12/03 09:02:39;;;;;;;99.60;19.50;;;-2.30;99.90;;;;;;5091667;28;20218;-48
2023/12/03 09:05:05;;;;;;;51.60;17.07;;;-2.30;99.90;;;;;;5101395;28;20523;-48
2023/12/03 09:07:31;;;;;;;164.50;22.23;;;-2.30;99.90;;;;;;5097004;28;20533;-48
2023/12/03 09:09:57;;;;;;;52.30;18.60;;;-2.20;99.90;;;;;;5102288;28;20528;-47
2023/12/03 09:12:23;;;;;;;48.73;17.40;;;-2.20;99.90;;;;;;5102484;28;20252;-48
2023/12/03 09:14:49;;;;;;;59.03;18.20;;;-2.00;1.00;;;;;;5099821;28;20453;-48
2023/12/03 09:17:14;;;;;;;55.60;17.87;;;-2.00;99.90;;;;;;5102665;28;20436;-49
2023/12/03 09:19:40;;;;;;;65.43;19.80;;;-2.00;99.90;;;;;;5102908;28;20216;-48
2023/12/03 09:22:05;;;;;;;83.90;18.97;;;-2.00;1.00;;;;;;5095600;28;20183;-48
2023/12/03 09:24:31;;;;;;;62.17;20.10;;;-1.90;1.00;;;;;;5104764;28;20190;-48
2023/12/03 09:26:56;;;;;;;73.20;19.70;;;-1.80;1.00;;;;;;5101501;28;20184;-48
2023/12/03 09:29:22;;;;;;;55.07;19.43;;;-1.80;1.00;;;;;;5105134;27;20492;-48
2023/12/03 09:31:47;;;;;;;76.23;18.47;;;-1.70;1.00;;;;;;5113073;27;20249;-48
2023/12/03 09:34:13;;;;;;;57.47;19.27;;;-1.60;1.00;;;;;;5101497;27;20656;-48
2023/12/03 09:36:39;;;;;;;41.23;17.80;;;-1.50;1.00;;;;;;5106552;27;20192;-47
2023/12/03 09:39:04;;;;;;;100.80;20.03;;;-1.40;1.00;;;;;;5106073;27;20191;-48
2023/12/03 09:41:33;;;;;;;55.77;18.80;;;-1.40;1.00;;;;;;5112010;27;20206;-48
2023/12/03 09:44:07;;;;;;;64.67;17.40;;;-1.30;1.00;;;;;;5104545;27;20666;-48
2023/12/03 09:46:35;;;;;;;61.37;17.80;;;-1.40;1.00;;;;;;5103022;27;20460;-48
2023/12/03 09:49:02;;;;;;;52.13;18.80;;;-1.40;99.90;;;;;;5107643;27;20461;-48
2023/12/03 09:51:29;;;;;;;100.67;22.67;;;-1.30;1.00;;;;;;5108526;27;20446;-48
2023/12/03 09:53:59;;;;;;;97.83;21.80;;;-1.20;1.00;;;;;;5102216;27;20441;-48
2023/12/03 09:56:28;;;;;;;56.87;19.93;;;-1.30;99.90;;;;;;5103051;27;20446;-48
2023/12/03 09:58:54;;;;;;;45.97;19.07;;;-1.20;1.00;;;;;;5111897;27;20445;-48
2023/12/03 10:01:22;;;;;;;54.40;20.13;;;-1.20;1.00;;;;;;5108893;27;20942;-49
2023/12/03 10:03:51;;;;;;;63.03;21.77;;;-0.90;1.00;;;;;;5101970;27;20453;-48
2023/12/03 10:06:21;;;;;;;53.27;21.60;;;-0.90;1.00;;;;;;5107913;27;20847;-49
2023/12/03 10:08:48;;;;;;;58.00;20.63;;;-0.90;99.90;;;;;;5101477;27;20437;-49
2023/12/03 10:11:21;;;;;;;57.23;21.90;;;-0.90;99.90;;;;;;5102416;27;20538;-49
2023/12/03 10:13:47;;;;;;;62.80;23.03;;;-1.00;1.00;;;;;;5105722;27;20442;-50
2023/12/03 10:16:14;;;;;;;64.87;21.60;;;-1.10;94.00;;;;;;5110777;27;20516;-49
2023/12/03 10:18:39;;;;;;;54.90;20.63;;;-1.00;99.90;;;;;;5108377;27;20455;-49
2023/12/03 10:21:06;;;;;;;58.80;21.00;;;-0.80;99.90;;;;;;5105166;27;20469;-49
2023/12/03 10:23:33;;;;;;;47.73;18.90;;;-0.80;99.90;;;;;;5106341;27;20187;-49
2023/12/03 10:26:12;;;;;;;51.43;20.00;;;-0.80;99.90;;;;;;5102993;27;20936;-49
2023/12/03 10:28:39;;;;;;;52.80;20.73;;;-0.70;99.90;;;;;;5099127;27;20533;-50
2023/12/03 10:31:14;;;;;;;49.67;20.07;;;-0.70;99.90;;;;;;5104380;27;20432;-49
2023/12/03 10:33:43;;;;;;;57.03;20.80;;;-0.70;1.00;;;;;;5108660;27;20446;-49
2023/12/03 10:36:09;;;;;;;54.40;20.50;;;-0.80;1.00;;;;;;5106192;27;20484;-49
2023/12/03 10:38:39;;;;;;;52.20;19.97;;;-0.80;1.00;;;;;;5108110;27;20433;-49
2023/12/03 10:41:10;;;;;;;48.33;19.03;;;-0.80;1.00;;;;;;5110154;27;20529;-50
2023/12/03 10:43:37;;;;;;;47.43;19.80;;;-0.90;99.90;;;;;;5104139;27;20439;-49
2023/12/03 10:46:09;;;;;;;55.00;18.90;;;-0.80;1.00;;;;;;5109962;27;20422;-50
2023/12/03 10:48:35;;;;;;;48.17;20.27;;;-0.80;99.90;;;;;;5108067;27;20442;-50
2023/12/03 10:51:06;;;;;;;40.90;18.07;;;-0.80;99.90;;;;;;5114143;27;20963;-49
2023/12/03 10:53:33;;;;;;;47.37;19.90;;;-0.80;1.00;;;;;;5104704;27;20435;-49
2023/12/03 10:56:04;;;;;;;48.40;18.67;;;-0.90;1.00;;;;;;5106662;27;20438;-49
2023/12/03 10:58:33;;;;;;;47.67;20.87;;;-1.00;1.00;;;;;;5107261;27;20465;-50
2023/12/03 11:01:07;;;;;;;44.20;19.30;;;-0.90;90.10;;;;;;5108735;27;20480;-50
2023/12/03 11:03:57;;;;;;;48.63;20.07;;;-0.90;99.90;;;;;;5110196;27;20523;-50
2023/12/03 11:06:24;;;;;;;51.27;21.07;;;-0.80;1.00;;;;;;5107457;27;20481;-50
2023/12/03 11:08:51;;;;;;;47.00;19.60;;;-0.80;1.00;;;;;;5106731;27;20441;-50
2023/12/03 11:11:19;;;;;;;46.50;20.37;;;-0.80;1.00;;;;;;5104382;28;20525;-50
2023/12/03 11:13:45;;;;;;;41.10;18.13;;;-0.90;1.00;;;;;;5108332;27;20539;-51
2023/12/03 11:16:13;;;;;;;43.87;19.60;;;-0.80;99.90;;;;;;5108007;27;20443;-50
2023/12/03 11:18:45;;;;;;;51.83;20.63;;;-0.70;99.90;;;;;;5110395;27;20434;-49
2023/12/03 11:21:35;;;;;;;48.13;19.23;;;-0.80;1.00;;;;;;5115117;27;20474;-49
2023/12/03 11:24:18;;;;;;;52.70;21.00;;;-0.80;1.00;;;;;;5108056;27;20516;-49
2023/12/03 11:26:45;;;;;;;51.77;21.57;;;-0.70;99.90;;;;;;5108901;27;20430;-49
2023/12/03 11:29:11;;;;;;;42.83;20.00;;;-0.70;1.00;;;;;;5107355;27;20998;-49
2023/12/03 11:31:36;;;;;;;48.17;21.27;;;-0.70;1.00;;;;;;5108391;27;20524;-49
2023/12/03 11:34:05;;;;;;;47.00;20.37;;;-0.80;98.10;;;;;;5106460;27;20632;-49
2023/12/03 11:36:45;;;;;;;45.87;20.07;;;-0.70;99.90;;;;;;5111320;27;20583;-49
2023/12/03 11:39:11;;;;;;;52.30;20.80;;;-0.70;99.90;;;;;;5107593;27;20418;-49
2023/12/03 11:41:37;;;;;;;54.20;21.40;;;-0.60;99.90;;;;;;5111786;27;20770;-49
2023/12/03 11:44:21;;;;;;;47.60;20.17;;;-0.40;99.90;;;;;;5104867;27;20569;-49
2023/12/03 11:47:00;;;;;;;54.17;21.60;;;-0.10;99.90;;;;;;5108385;27;20939;-50
2023/12/03 11:49:28;;;;;;;53.43;20.70;;;0.50;1.00;;;;;;5108227;27;20444;-50
2023/12/03 11:51:54;;;;;;;43.40;18.47;;;1.20;1.00;;;;;;5111907;27;21005;-50
2023/12/03 11:54:24;;;;;;;41.20;18.83;;;1.90;1.00;;;;;;5105191;27;20430;-51
2023/12/03 11:56:50;;;;;;;36.73;17.40;;;2.80;1.00;;;;;;5105637;27;20245;-50
2023/12/03 11:59:16;;;;;;;38.37;18.63;;;3.50;21.10;;;;;;5104128;27;20452;-50
2023/12/03 12:01:41;;;;;;;34.60;17.77;;;4.00;99.90;;;;;;5108070;27;20201;-50
2023/12/03 12:04:07;;;;;;;34.60;17.43;;;4.30;84.80;;;;;;5115121;27;20192;-50
2023/12/03 12:06:33;;;;;;;38.93;18.90;;;4.30;29.20;;;;;;5105442;27;20236;-50
2023/12/03 12:08:59;;;;;;;35.70;17.80;;;4.60;11.10;;;;;;5103793;27;20507;-50
2023/12/03 12:11:25;;;;;;;28.10;16.60;;;5.30;20.50;;;;;;5109120;27;20436;-50
2023/12/03 12:13:50;;;;;;;35.13;17.40;;;6.50;1.00;;;;;;5106815;27;20205;-51
2023/12/03 12:16:16;;;;;;;30.87;17.00;;;7.30;1.00;;;;;;5106270;27;20649;-50
2023/12/03 12:18:42;;;;;;;32.93;18.17;;;7.80;1.00;;;;;;5111783;27;20294;-51
2023/12/03 12:21:10;;;;;;;33.07;18.03;;;8.70;1.00;;;;;;5108229;27;21110;-51
2023/12/03 12:23:36;;;;;;;28.70;16.40;;;9.60;1.00;;;;;;5111235;27;20279;-51
2023/12/03 12:26:02;;;;;;;37.07;18.60;;;10.00;1.00;;;;;;5110447;27;20901;-51
2023/12/03 12:28:28;;;;;;;30.77;17.93;;;10.90;1.00;;;;;;5101333;27;20486;-51